Map

Track Data

SID SEASON NUMBER BASIN SUBBASIN NAME ISO_TIME NATURE LAT LON WMO_WIND WMO_PRES WMO_AGENCY TRACK_TYPE DIST2LAND LANDFALL IFLAG USA_AGENCY USA_ATCF_ID USA_LAT USA_LON USA_RECORD USA_STATUS USA_WIND USA_PRES USA_SSHS USA_R34_NE USA_R34_SE USA_R34_SW USA_R34_NW USA_R50_NE USA_R50_SE USA_R50_SW USA_R50_NW USA_R64_NE USA_R64_SE USA_R64_SW USA_R64_NW USA_POCI USA_ROCI USA_RMW USA_EYE TOKYO_LAT TOKYO_LON TOKYO_GRADE TOKYO_WIND TOKYO_PRES TOKYO_R50_DIR TOKYO_R50_LONG TOKYO_R50_SHORT TOKYO_R30_DIR TOKYO_R30_LONG TOKYO_R30_SHORT TOKYO_LAND CMA_LAT CMA_LON CMA_CAT CMA_WIND CMA_PRES HKO_LAT HKO_LON HKO_CAT HKO_WIND HKO_PRES NEWDELHI_LAT NEWDELHI_LON NEWDELHI_GRADE NEWDELHI_WIND NEWDELHI_PRES NEWDELHI_CI NEWDELHI_DP NEWDELHI_POCI REUNION_LAT REUNION_LON REUNION_TYPE REUNION_WIND REUNION_PRES REUNION_TNUM REUNION_CI REUNION_RMW REUNION_R34_NE REUNION_R34_SE REUNION_R34_SW REUNION_R34_NW REUNION_R50_NE REUNION_R50_SE REUNION_R50_SW REUNION_R50_NW REUNION_R64_NE REUNION_R64_SE REUNION_R64_SW REUNION_R64_NW BOM_LAT BOM_LON BOM_TYPE BOM_WIND BOM_PRES BOM_TNUM BOM_CI BOM_RMW BOM_R34_NE BOM_R34_SE BOM_R34_SW BOM_R34_NW BOM_R50_NE BOM_R50_SE BOM_R50_SW BOM_R50_NW BOM_R64_NE BOM_R64_SE BOM_R64_SW BOM_R64_NW BOM_ROCI BOM_POCI BOM_EYE BOM_POS_METHOD BOM_PRES_METHOD NADI_LAT NADI_LON NADI_CAT NADI_WIND NADI_PRES WELLINGTON_LAT WELLINGTON_LON WELLINGTON_WIND WELLINGTON_PRES DS824_LAT DS824_LON DS824_STAGE DS824_WIND DS824_PRES TD9636_LAT TD9636_LON TD9636_STAGE TD9636_WIND TD9636_PRES TD9635_LAT TD9635_LON TD9635_WIND TD9635_PRES TD9635_ROCI NEUMANN_LAT NEUMANN_LON NEUMANN_CLASS NEUMANN_WIND NEUMANN_PRES MLC_LAT MLC_LON MLC_CLASS MLC_WIND MLC_PRES USA_GUST BOM_GUST BOM_GUST_PER REUNION_GUST REUNION_GUST_PER USA_SEAHGT USA_SEARAD_NE USA_SEARAD_SE USA_SEARAD_SW USA_SEARAD_NW STORM_SPEED STORM_DIR
1985159N09241 1985 42 EP MM CARLOS 1985-06-07 18:00:00 TS 8.70000 -119.000 30 hurdat_epa main 1856 1856 O_________O___ hurdat_epa EP031985 8.70000 -119.000 TD 30 -1 8.70000 -119.000 1 30 5 270
1985159N09241 1985 42 EP MM CARLOS 1985-06-07 21:00:00 TS 8.69962 -119.259 main 1873 1873 P_________P___ EP031985 8.70004 -119.260 TD 30 -1 8.69834 -119.255 1 30 5 270
1985159N09241 1985 42 EP MM CARLOS 1985-06-08 00:00:00 TS 8.70000 -119.500 30 hurdat_epa main 1884 1884 O_________O___ hurdat_epa EP031985 8.70000 -119.500 TD 30 -1 8.70000 -119.500 1 30 4 270
1985159N09241 1985 42 EP MM CARLOS 1985-06-08 03:00:00 TS 8.70168 -119.712 main 1896 1896 P_________P___ EP031985 8.69998 -119.708 TD 30 -1 8.70678 -119.726 1 30 4 270
1985159N09241 1985 42 EP MM CARLOS 1985-06-08 06:00:00 TS 8.70340 -119.909 30 hurdat_epa main 1908 1908 O_________P___ hurdat_epa EP031985 8.70000 -119.900 TD 30 -1 8.71360 -119.934 1 30 4 271
1985159N09241 1985 42 EP MM CARLOS 1985-06-08 09:00:00 TS 8.70902 -120.106 main 1920 1920 P_________P___ EP031985 8.70749 -120.100 TD 30 -1 8.71361 -120.125 1 30 4 269
1985159N09241 1985 42 EP MM CARLOS 1985-06-08 12:00:00 TS 8.70000 -120.300 30 hurdat_epa main 1932 1932 O_________O___ hurdat_epa EP031985 8.70000 -120.300 TD 30 -1 8.70000 -120.300 1 30 4 263
1985159N09241 1985 42 EP MM CARLOS 1985-06-08 15:00:00 TS 8.65923 -120.509 main 1944 1944 P_________P___ EP031985 8.65751 -120.515 TD 30 -1 8.66438 -120.493 1 30 4 256
1985159N09241 1985 42 EP MM CARLOS 1985-06-08 18:00:00 TS 8.60375 -120.692 30 hurdat_epa main 1965 1965 O_________P___ hurdat_epa EP031985 8.60000 -120.700 TD 30 -1 8.61501 -120.668 1 30 3 251
1985159N09241 1985 42 EP MM CARLOS 1985-06-08 21:00:00 TS 8.55202 -120.819 main 1972 1972 P_________P___ EP031985 8.54999 -120.822 TD 30 -1 8.55813 -120.808 1 30 2 243
1985159N09241 1985 42 EP MM CARLOS 1985-06-09 00:00:00 TS 8.50000 -120.900 30 hurdat_epa main 1987 1987 O_________O___ hurdat_epa EP031985 8.50000 -120.900 TD 30 -1 8.50000 -120.900 1 30 2 234
1985159N09241 1985 42 EP MM CARLOS 1985-06-09 03:00:00 TS 8.44288 -120.968 main 2003 2003 P_________P___ EP031985 8.45000 -120.980 TD 30 -1 8.42152 -120.933 1 30 1 214
1985159N09241 1985 42 EP MM CARLOS 1985-06-09 06:00:00 TS 8.38686 -120.979 30 hurdat_epa main 2003 1996 O_________P___ hurdat_epa EP031985 8.40000 -121.000 TD 30 -1 8.34746 -120.917 1 30 1 153
1985159N09241 1985 42 EP MM CARLOS 1985-06-09 09:00:00 TS 8.32617 -120.909 main 2006 1999 P_________P___ EP031985 8.33500 -120.922 TD 30 -1 8.29966 -120.868 1 30 2 116
1985159N09241 1985 42 EP MM CARLOS 1985-06-09 12:00:00 TS 8.30000 -120.800 30 hurdat_epa main 1999 1993 O_________O___ hurdat_epa EP031985 8.30000 -120.800 TD 30 -1 8.30000 -120.800 1 30 2 91
1985159N09241 1985 42 EP MM CARLOS 1985-06-09 15:00:00 TS 8.32298 -120.702 main 1993 1978 P_________P___ EP031985 8.31250 -120.693 TD 30 -1 8.35439 -120.731 1 31 2 58
1985159N09241 1985 42 EP MM CARLOS 1985-06-09 18:00:00 TS 8.41501 -120.613 30 hurdat_epa main 1978 1953 O_________P___ hurdat_epa EP031985 8.40000 -120.600 TD 30 -1 8.46003 -120.650 1 32 3 31
1985159N09241 1985 42 EP MM CARLOS 1985-06-09 21:00:00 TS 8.58016 -120.543 main 1953 1935 P_________P___ EP031985 8.57000 -120.535 TD 32 -1 8.61065 -120.569 1 33 4 17
1985159N09241 1985 42 EP MM CARLOS 1985-06-10 00:00:00 TS 8.80000 -120.500 35 hurdat_epa main 1935 1916 O_________O___ hurdat_epa EP031985 8.80000 -120.500 TS 35 0 8.80000 -120.500 2 35 4 6
1985159N09241 1985 42 EP MM CARLOS 1985-06-10 03:00:00 TS 9.01646 -120.500 main 1916 1898 P_________P___ EP031985 9.04250 -120.500 TS 32 -1 8.93834 -120.500 2 33 5 357
1985159N09241 1985 42 EP MM CARLOS 1985-06-10 06:00:00 TS 9.25568 -120.502 30 hurdat_epa main 1888 1870 O_________P___ hurdat_epa EP031985 9.30000 -120.500 TD 30 -1 9.12271 -120.507 2 32 5 3
1985159N09241 1985 42 EP MM CARLOS 1985-06-10 09:00:00 TS 9.47205 -120.482 main 1870 1836 P_________P___ EP031985 9.49749 -120.480 TD 30 -1 9.39571 -120.486 2 31 6 10
1985159N09241 1985 42 EP MM CARLOS 1985-06-10 12:00:00 TS 9.80000 -120.400 30 hurdat_epa main 1836 1778 O_________O___ hurdat_epa EP031985 9.80000 -120.400 TD 30 -1 9.80000 -120.400 1 30 9 16
1985159N09241 1985 42 EP MM CARLOS 1985-06-10 15:00:00 TS 10.3367 -120.227 main 1778 1702 P_________P___ EP031985 10.3301 -120.228 TD 27 -1 10.3566 -120.226 1 27 13 18
1985159N09241 1985 42 EP MM CARLOS 1985-06-10 18:00:00 TS 11.0000 -120.000 25 hurdat_epa main 1702 O_________O___ hurdat_epa EP031985 11.0000 -120.000 TD 25 -1 11.0000 -120.000 1 25 14 19

About IBTrACS Database

This database is a web-friendly format of International Best Track Archive for Climate Stewardship (IBTrACS), a global best track data archive curated by NOAA dating back to 1842.

Updated: 2021-12-03